Time;durP1;ratioP1;P1;durP2;ratioP2;P2;SDS_P1;SDS_P2;PMS_P1;PMS_P2;Temp;Humidity;BMP_temperature;BMP_pressure;BME280_temperature;BME280_humidity;BME280_pressure;Samples;Min_cycle;Max_cycle;Signal;HPM_P1;HPM_P2
2024/02/02 11:34:43;;;;;;;17.98;11.27;;;15.10;58.10;;;;;;5039809;28;20052;-72
2024/02/02 11:37:28;;;;;;;17.90;11.40;;;15.20;58.00;;;;;;5055411;28;20041;-72
2024/02/02 11:40:08;;;;;;;17.35;10.75;;;15.30;57.20;;;;;;5054705;28;20025;-71
2024/02/02 11:42:38;;;;;;;12.10;9.65;;;15.40;57.00;;;;;;5055937;28;20037;-71
2024/02/02 11:45:07;;;;;;;15.80;9.85;;;15.50;56.10;;;;;;5051227;28;20025;-72
2024/02/02 11:47:46;;;;;;;24.77;10.88;;;15.60;56.40;;;;;;5044982;28;20102;-71
2024/02/02 11:50:16;;;;;;;17.67;11.23;;;15.70;56.30;;;;;;5030148;28;20037;-70
2024/02/02 11:52:46;;;;;;;13.05;8.93;;;15.80;56.00;;;;;;5045171;28;20032;-70
2024/02/02 11:55:18;;;;;;;17.23;10.90;;;15.90;56.00;;;;;;5044683;28;20033;-71
2024/02/02 11:57:50;;;;;;;16.30;11.27;;;15.90;55.20;;;;;;5037137;28;20038;-72
2024/02/02 12:00:57;;;;;;;17.85;11.38;;;16.00;55.10;;;;;;5034117;28;20030;-71
2024/02/02 12:03:59;;;;;;;17.55;11.50;;;16.10;54.00;;;;;;5022352;28;20044;-71
2024/02/02 12:06:31;;;;;;;18.42;10.73;;;16.10;54.70;;;;;;5054212;28;20466;-72
2024/02/02 12:09:32;;;;;;;14.98;11.18;;;16.20;54.30;;;;;;5053943;28;20029;-75
2024/02/02 12:12:00;;;;;;;18.60;10.95;;;16.30;54.60;;;;;;5009176;28;20045;-74
2024/02/02 12:14:35;;;;;;;19.88;11.75;;;16.40;53.90;;;;;;5054067;28;20049;-71
2024/02/02 12:17:01;;;;;;;15.55;10.43;;;16.50;53.60;;;;;;5054220;28;20037;-72
2024/02/02 12:19:27;;;;;;;15.23;9.98;;;16.60;53.90;;;;;;5035942;28;20125;-71
2024/02/02 12:21:54;;;;;;;15.75;10.90;;;16.70;53.00;;;;;;5053925;28;20104;-72
2024/02/02 12:24:21;;;;;;;15.38;9.68;;;16.80;53.20;;;;;;5053986;28;20033;-74
2024/02/02 12:26:47;;;;;;;15.85;9.23;;;16.80;52.20;;;;;;5076527;22;20075;-81
2024/02/02 12:29:14;;;;;;;16.67;10.57;;;16.90;51.80;;;;;;5073751;28;20068;-73
2024/02/02 12:31:40;;;;;;;15.73;10.77;;;17.00;51.90;;;;;;5073754;28;20093;-72
2024/02/02 12:34:06;;;;;;;15.07;9.70;;;17.10;51.60;;;;;;5073378;28;20168;-72
2024/02/02 12:36:32;;;;;;;17.80;10.90;;;17.10;51.10;;;;;;5073478;28;20056;-72
2024/02/02 12:39:05;;;;;;;17.80;11.48;;;17.20;51.30;;;;;;5073740;28;20029;-74
2024/02/02 12:41:31;;;;;;;16.05;9.20;;;17.30;51.10;;;;;;5073989;28;20059;-73
2024/02/02 12:43:58;;;;;;;14.43;9.65;;;17.30;51.00;;;;;;5074814;28;20056;-75
2024/02/02 12:46:23;;;;;;;16.50;10.43;;;17.40;50.60;;;;;;5073788;28;20037;-74
2024/02/02 12:48:50;;;;;;;16.13;9.45;;;17.50;50.30;;;;;;5055451;28;20466;-74
2024/02/02 12:51:19;;;;;;;19.00;11.18;;;17.60;51.00;;;;;;5055389;28;20059;-74
2024/02/02 12:53:44;;;;;;;15.70;10.18;;;17.60;50.10;;;;;;5064391;28;20040;-74
2024/02/02 12:56:13;;;;;;;16.30;10.93;;;17.70;50.00;;;;;;5035726;28;20465;-73
2024/02/02 12:58:39;;;;;;;16.05;10.60;;;17.70;50.00;;;;;;5072913;28;20116;-71
2024/02/02 13:01:05;;;;;;;15.90;11.30;;;17.80;49.70;;;;;;5072397;28;20036;-72
2024/02/02 13:03:32;;;;;;;18.38;10.95;;;17.80;50.20;;;;;;5072983;28;20036;-72
2024/02/02 13:05:58;;;;;;;17.42;10.68;;;17.80;50.00;;;;;;5071884;28;20071;-72
2024/02/02 13:08:35;;;;;;;14.63;10.23;;;17.90;49.50;;;;;;5073068;28;20116;-72
2024/02/02 13:11:00;;;;;;;17.83;10.65;;;18.00;49.40;;;;;;5052744;28;20123;-73
2024/02/02 13:13:27;;;;;;;15.55;10.27;;;18.00;49.50;;;;;;5072360;28;20128;-72
2024/02/02 13:15:53;;;;;;;18.50;10.52;;;18.10;49.10;;;;;;5072744;28;20036;-70
2024/02/02 13:18:21;;;;;;;15.98;10.00;;;18.10;48.60;;;;;;5066650;28;20048;-71
2024/02/02 13:20:53;;;;;;;14.77;9.52;;;18.10;48.40;;;;;;5072459;28;20082;-71
2024/02/02 13:23:24;;;;;;;14.40;9.50;;;18.10;48.70;;;;;;5072141;28;20424;-71
2024/02/02 13:25:57;;;;;;;16.13;9.60;;;18.20;48.30;;;;;;5055104;28;20374;-70
2024/02/02 13:28:29;;;;;;;12.63;8.73;;;18.20;47.90;;;;;;5072882;28;20046;-71
2024/02/02 13:31:00;;;;;;;13.52;8.60;;;18.30;47.50;;;;;;5073277;28;20032;-71
2024/02/02 13:33:28;;;;;;;13.88;8.57;;;18.30;47.70;;;;;;5054241;28;20043;-70
2024/02/02 13:35:54;;;;;;;13.18;8.55;;;18.40;47.60;;;;;;5071968;28;20144;-71
2024/02/02 13:38:21;;;;;;;15.27;8.45;;;18.40;47.00;;;;;;5071977;28;20370;-70
2024/02/02 13:40:48;;;;;;;13.40;7.40;;;18.40;47.10;;;;;;5071866;28;20064;-71
2024/02/02 13:43:14;;;;;;;15.10;7.43;;;18.50;46.50;;;;;;5071890;28;20028;-69
2024/02/02 13:45:40;;;;;;;14.38;7.85;;;18.60;46.60;;;;;;5072255;28;20035;-71
2024/02/02 13:48:12;;;;;;;10.52;6.80;;;18.60;46.30;;;;;;5070343;28;20116;-71
2024/02/02 13:50:59;;;;;;;13.07;6.90;;;18.60;46.30;;;;;;5065691;28;20340;-71
2024/02/02 13:53:26;;;;;;;13.27;8.40;;;18.60;46.30;;;;;;5067171;28;20037;-71
2024/02/02 13:55:52;;;;;;;12.93;8.90;;;18.50;46.20;;;;;;5072030;28;20041;-70
2024/02/02 13:58:19;;;;;;;14.45;9.68;;;18.50;46.60;;;;;;5054813;28;20036;-71
2024/02/02 14:00:45;;;;;;;17.42;10.43;;;18.50;46.60;;;;;;5072148;28;20040;-72
2024/02/02 14:03:15;;;;;;;16.98;10.48;;;18.50;46.50;;;;;;5053764;28;20037;-71
2024/02/02 14:05:41;;;;;;;18.73;10.88;;;18.50;46.60;;;;;;5071914;28;20036;-72
2024/02/02 14:08:07;;;;;;;16.92;9.40;;;18.40;46.60;;;;;;5071877;28;20036;-70
2024/02/02 14:10:46;;;;;;;16.15;10.05;;;18.40;47.00;;;;;;5071669;28;20032;-70
2024/02/02 14:13:19;;;;;;;19.38;10.65;;;18.50;47.10;;;;;;5071563;28;20119;-72
2024/02/02 14:15:47;;;;;;;20.27;11.00;;;18.40;47.00;;;;;;5071760;28;20037;-71
2024/02/02 14:18:15;;;;;;;17.85;11.30;;;18.40;47.10;;;;;;5071431;28;20102;-71
2024/02/02 14:20:40;;;;;;;20.52;11.38;;;18.40;47.70;;;;;;5070918;28;20028;-70
2024/02/02 14:23:14;;;;;;;19.13;11.00;;;18.40;47.80;;;;;;5071036;28;20055;-70
2024/02/02 14:25:40;;;;;;;;;;;18.30;47.90;;;;;;5071266;28;20508;-71
2024/02/02 14:28:14;;;;;;;24.23;12.50;;;18.30;48.00;;;;;;5071868;28;20053;-70
2024/02/02 14:30:40;;;;;;;;;;;18.20;48.90;;;;;;5071556;28;20076;-70
2024/02/02 14:33:06;;;;;;;24.63;11.90;;;18.20;49.40;;;;;;5071924;28;19940;-70
2024/02/02 14:35:32;;;;;;;19.88;13.60;;;18.10;49.80;;;;;;5072422;28;20072;-70
2024/02/02 14:37:57;;;;;;;22.30;13.50;;;18.00;50.00;;;;;;5076724;28;20041;-70
2024/02/02 14:40:23;;;;;;;24.13;14.50;;;18.00;50.40;;;;;;5075462;28;20043;-71
2024/02/02 14:42:49;;;;;;;20.48;13.82;;;17.90;50.60;;;;;;5075257;28;20029;-72
2024/02/02 14:45:15;;;;;;;21.02;14.13;;;17.90;51.00;;;;;;5057216;28;20028;-71
2024/02/02 14:47:41;;;;;;;22.42;14.15;;;17.80;51.10;;;;;;5068965;28;20036;-70
2024/02/02 14:50:10;;;;;;;27.45;13.90;;;17.70;51.10;;;;;;5055002;28;20025;-71
2024/02/02 14:52:36;;;;;;;19.60;14.48;;;17.70;51.80;;;;;;5067513;28;20087;-71
2024/02/02 14:55:02;;;;;;;21.10;13.57;;;17.60;51.50;;;;;;5074875;28;20036;-70
2024/02/02 14:57:28;;;;;;;21.63;13.88;;;17.60;51.80;;;;;;5094899;28;20035;-70
2024/02/02 14:59:55;;;;;;;22.33;13.85;;;17.50;52.60;;;;;;5095334;28;20039;-72
2024/02/02 15:02:21;;;;;;;19.45;13.55;;;17.50;52.30;;;;;;5095317;28;20078;-72
2024/02/02 15:04:47;;;;;;;20.60;13.52;;;17.40;52.60;;;;;;5076856;28;20031;-70
2024/02/02 15:07:13;;;;;;;17.52;12.60;;;17.30;53.10;;;;;;5095283;28;20089;-72
2024/02/02 15:09:41;;;;;;;19.88;13.45;;;17.20;53.30;;;;;;5076879;28;20029;-71
2024/02/02 15:12:07;;;;;;;20.35;12.90;;;17.10;53.80;;;;;;5060481;28;20481;-71
2024/02/02 15:14:34;;;;;;;20.25;12.73;;;17.00;54.20;;;;;;5054490;28;20045;-72
2024/02/02 15:17:00;;;;;;;20.75;12.48;;;17.00;54.80;;;;;;5065350;28;20047;-71
2024/02/02 15:19:25;;;;;;;23.95;12.63;;;16.90;55.20;;;;;;5070803;28;20244;-72
2024/02/02 15:21:51;;;;;;;17.17;11.57;;;16.90;55.70;;;;;;5072987;28;20025;-70
2024/02/02 15:24:17;;;;;;;21.67;12.02;;;16.80;55.80;;;;;;5074948;28;20059;-71
2024/02/02 15:26:44;;;;;;;17.38;11.65;;;16.80;56.30;;;;;;5057156;28;20048;-71
2024/02/02 15:29:10;;;;;;;15.88;10.95;;;16.80;56.60;;;;;;5075278;28;20421;-71
2024/02/02 15:31:38;;;;;;;18.65;11.70;;;16.70;56.70;;;;;;5074455;28;20177;-72
2024/02/02 15:34:03;;;;;;;14.68;10.65;;;16.60;56.80;;;;;;5074509;28;20482;-72
2024/02/02 15:36:29;;;;;;;15.43;9.93;;;16.50;56.90;;;;;;5074164;28;20039;-71
2024/02/02 15:38:55;;;;;;;14.70;10.00;;;16.50;57.00;;;;;;5056180;28;20029;-72
2024/02/02 15:41:20;;;;;;;18.77;10.55;;;16.40;57.00;;;;;;5073809;28;20492;-72
2024/02/02 15:43:48;;;;;;;15.70;9.93;;;16.40;57.50;;;;;;5073225;28;20094;-72
2024/02/02 15:46:13;;;;;;;15.25;9.82;;;16.30;57.70;;;;;;5073939;28;20033;-70
2024/02/02 15:48:40;;;;;;;13.88;9.65;;;16.30;58.20;;;;;;5071864;28;20127;-72
2024/02/02 15:51:15;;;;;;;15.13;9.52;;;16.20;58.40;;;;;;5070020;28;20481;-73
2024/02/02 15:53:41;;;;;;;12.88;8.60;;;16.20;58.70;;;;;;5046416;28;20029;-70
2024/02/02 15:56:16;;;;;;;11.85;8.45;;;16.10;59.00;;;;;;5073652;28;20036;-73
2024/02/02 15:58:43;;;;;;;11.95;8.27;;;16.00;59.40;;;;;;5074380;28;20032;-71
2024/02/02 16:01:09;;;;;;;13.60;8.95;;;15.90;59.90;;;;;;5074331;28;20505;-71
2024/02/02 16:03:35;;;;;;;16.48;9.77;;;15.80;60.60;;;;;;5073985;28;20056;-72
2024/02/02 16:06:01;;;;;;;13.38;9.10;;;15.80;61.30;;;;;;5073762;28;20432;-72
2024/02/02 16:08:29;;;;;;;16.10;9.73;;;15.70;61.50;;;;;;5071271;28;20039;-71
2024/02/02 16:10:55;;;;;;;18.10;9.85;;;15.60;62.00;;;;;;5073875;28;20381;-72
2024/02/02 16:13:20;;;;;;;16.98;9.50;;;15.60;62.50;;;;;;5073944;28;20090;-68
2024/02/02 16:15:46;;;;;;;18.35;9.80;;;15.50;63.00;;;;;;5073848;28;20068;-79
2024/02/02 16:18:12;;;;;;;15.45;10.05;;;15.40;63.70;;;;;;5071872;28;20033;-73
2024/02/02 16:20:37;;;;;;;17.27;10.43;;;15.30;64.10;;;;;;5073478;28;20081;-79
2024/02/02 16:23:03;;;;;;;17.08;11.25;;;15.30;64.30;;;;;;5073692;28;20032;-73
2024/02/02 16:25:29;;;;;;;15.05;10.27;;;15.10;64.80;;;;;;5073376;28;20132;-72
2024/02/02 16:27:55;;;;;;;16.98;9.85;;;15.10;64.90;;;;;;5073975;28;20040;-72
2024/02/02 16:30:20;;;;;;;15.70;10.23;;;15.00;65.10;;;;;;5073533;28;20132;-72
2024/02/02 16:32:46;;;;;;;16.02;10.15;;;15.00;65.30;;;;;;5071655;28;20067;-75
2024/02/02 16:35:12;;;;;;;16.23;10.02;;;14.90;65.60;;;;;;5072928;28;20043;-71
2024/02/02 16:37:39;;;;;;;16.42;11.45;;;14.80;65.60;;;;;;5073323;28;20033;-70
2024/02/02 16:40:09;;;;;;;16.17;11.13;;;14.80;66.00;;;;;;5073641;28;20371;-71
2024/02/02 16:42:35;;;;;;;19.48;11.98;;;14.80;66.30;;;;;;5073310;28;20028;-72
2024/02/02 16:45:02;;;;;;;17.08;12.32;;;14.70;66.30;;;;;;5070476;28;20506;-70
2024/02/02 16:47:28;;;;;;;19.65;12.45;;;14.60;66.40;;;;;;5073401;28;20059;-70
2024/02/02 16:49:54;;;;;;;18.10;11.32;;;14.60;66.70;;;;;;5073424;28;20037;-68
2024/02/02 16:52:20;;;;;;;17.88;11.98;;;14.50;66.70;;;;;;5073097;28;20086;-69
2024/02/02 16:54:47;;;;;;;18.42;11.40;;;14.50;66.90;;;;;;5073481;28;20448;-70
2024/02/02 16:57:13;;;;;;;16.85;11.18;;;14.40;67.00;;;;;;5073343;28;20033;-70
2024/02/02 16:59:39;;;;;;;16.77;11.98;;;14.40;67.30;;;;;;5072763;28;20043;-69
2024/02/02 17:02:04;;;;;;;17.70;11.75;;;14.30;67.50;;;;;;5073263;28;20037;-70
2024/02/02 17:04:31;;;;;;;20.35;12.80;;;14.30;67.60;;;;;;5055237;28;20039;-69
2024/02/02 17:06:56;;;;;;;14.20;11.43;;;14.30;67.90;;;;;;5072737;28;20044;-69
2024/02/02 17:09:22;;;;;;;17.02;12.27;;;14.30;68.10;;;;;;5072984;28;20028;-69
2024/02/02 17:11:48;;;;;;;20.38;12.00;;;14.20;68.10;;;;;;5073062;28;20482;-72
2024/02/02 17:14:13;;;;;;;23.85;12.05;;;14.20;68.60;;;;;;5072755;28;20044;-70
2024/02/02 17:16:39;;;;;;;20.98;13.68;;;14.10;68.60;;;;;;5073090;28;20036;-70
2024/02/02 17:19:05;;;;;;;21.98;13.02;;;14.10;68.90;;;;;;5072570;28;20045;-71
2024/02/02 17:21:31;;;;;;;19.95;12.77;;;14.00;69.00;;;;;;5051984;28;20039;-70
2024/02/02 17:23:57;;;;;;;19.95;14.75;;;14.00;69.00;;;;;;5061267;28;20406;-69
2024/02/02 17:26:22;;;;;;;19.25;14.27;;;13.90;69.40;;;;;;5062719;28;20033;-71
2024/02/02 17:28:48;;;;;;;22.67;14.57;;;13.90;69.40;;;;;;5069118;28;20563;-70
2024/02/02 17:31:15;;;;;;;25.20;14.02;;;13.90;69.40;;;;;;5072972;28;20112;-72
2024/02/02 17:33:41;;;;;;;21.33;13.98;;;13.80;69.40;;;;;;5072267;28;20219;-71
2024/02/02 17:36:15;;;;;;;20.67;13.45;;;13.80;69.50;;;;;;5073109;28;20505;-73
2024/02/02 17:38:42;;;;;;;18.52;13.55;;;13.80;69.60;;;;;;5072636;28;20127;-69
2024/02/02 17:41:15;;;;;;;21.58;15.45;;;13.80;69.50;;;;;;5072628;28;20379;-71
2024/02/02 17:43:42;;;;;;;;;;;13.70;69.40;;;;;;5054635;28;20498;-78
2024/02/02 17:46:11;;;;;;;24.80;17.58;;;13.70;69.30;;;;;;5066525;28;19912;-73
2024/02/02 17:48:37;;;;;;;26.35;18.02;;;13.60;69.20;;;;;;5054811;28;20359;-72
2024/02/02 17:51:06;;;;;;;24.30;19.55;;;13.50;69.00;;;;;;5051166;28;20048;-74
2024/02/02 17:53:33;;;;;;;27.25;18.92;;;13.50;68.90;;;;;;5055306;28;20397;-75
2024/02/02 17:56:03;;;;;;;22.85;18.05;;;13.40;68.60;;;;;;5072288;28;20037;-75
2024/02/02 17:58:29;;;;;;;30.23;19.50;;;13.40;68.80;;;;;;5072493;28;20024;-74
2024/02/02 18:00:54;;;;;;;29.20;19.77;;;13.30;68.40;;;;;;5072263;28;20413;-75
2024/02/02 18:03:20;;;;;;;27.75;19.75;;;13.30;68.40;;;;;;5054299;28;20067;-74
2024/02/02 18:05:45;;;;;;;28.10;19.92;;;13.20;68.40;;;;;;5072168;28;20040;-76
2024/02/02 18:08:11;;;;;;;28.02;19.35;;;13.20;68.40;;;;;;5054028;28;20036;-74
2024/02/02 18:10:37;;;;;;;32.95;20.58;;;13.20;68.30;;;;;;5070991;28;20101;-72
2024/02/02 18:13:03;;;;;;;31.17;20.85;;;13.10;68.30;;;;;;5072545;28;20064;-75
2024/02/02 18:15:28;;;;;;;30.45;21.10;;;13.10;68.40;;;;;;5072977;28;20044;-74
2024/02/02 18:17:54;;;;;;;29.73;22.27;;;13.10;68.50;;;;;;5073372;28;20082;-76
2024/02/02 18:20:20;;;;;;;36.05;19.60;;;13.10;68.50;;;;;;5072063;28;20040;-74
2024/02/02 18:22:46;;;;;;;31.80;20.45;;;13.10;68.50;;;;;;5071740;28;20037;-74
